Time;durP1;ratioP1;P1;durP2;ratioP2;P2;SDS_P1;SDS_P2;PMS_P1;PMS_P2;Temp;Humidity;BMP_temperature;BMP_pressure;BME280_temperature;BME280_humidity;BME280_pressure;Samples;Min_cycle;Max_cycle;Signal;HPM_P1;HPM_P2
2023/09/07 00:01:07;;;;;;;;;4.50;4.25;;;;;24.35;47.47;101004.09;5066584;28;68302;-71
2023/09/07 00:03:32;;;;;;;;;5.00;3.25;;;;;24.33;47.21;101005.16;5086313;27;45580;-70
2023/09/07 00:06:00;;;;;;;;;5.00;5.00;;;;;24.22;47.50;100993.53;5065426;28;45409;-71
2023/09/07 00:08:25;;;;;;;;;10.75;6.00;;;;;24.26;47.60;101005.69;5071206;28;45524;-70
2023/09/07 00:10:51;;;;;;;;;10.75;9.00;;;;;24.21;47.60;100999.84;5069615;28;45330;-69
2023/09/07 00:13:16;;;;;;;;;4.25;4.00;;;;;24.22;47.11;101000.69;5056518;28;45913;-71
2023/09/07 00:15:42;;;;;;;;;6.00;5.00;;;;;24.19;48.07;100999.13;5075327;28;46165;-70
2023/09/07 00:18:07;;;;;;;;;5.75;3.00;;;;;24.14;47.72;100992.44;5071842;28;45489;-70
2023/09/07 00:20:33;;;;;;;;;3.00;2.75;;;;;24.13;47.81;100994.25;5076968;28;50731;-70
2023/09/07 00:23:00;;;;;;;;;6.75;4.50;;;;;24.11;47.56;100990.84;5074655;28;45540;-71
2023/09/07 00:25:25;;;;;;;;;6.50;4.75;;;;;24.07;47.88;100984.06;5070671;28;47618;-71
2023/09/07 00:27:51;;;;;;;;;6.50;5.50;;;;;24.06;48.03;100980.56;5071884;28;45290;-71
2023/09/07 00:30:16;;;;;;;;;7.50;5.00;;;;;23.99;47.95;100979.34;5081106;27;67446;-71
2023/09/07 00:32:41;;;;;;;;;9.50;8.50;;;;;23.98;47.80;100979.47;5077763;27;45497;-71
2023/09/07 00:35:09;;;;;;;;;5.25;4.75;;;;;23.95;47.88;100985.03;5074974;28;46151;-72
2023/09/07 00:37:34;;;;;;;;;6.25;4.50;;;;;23.92;47.77;100985.28;5054898;28;45735;-71
2023/09/07 00:40:00;;;;;;;;;7.25;6.25;;;;;23.90;48.00;100985.41;5075512;27;45313;-71
2023/09/07 00:42:25;;;;;;;;;4.50;4.00;;;;;23.91;47.76;100983.59;5077702;27;45525;-73
2023/09/07 00:44:50;;;;;;;;;5.25;5.25;;;;;23.88;48.19;100982.84;5073550;27;59700;-70
2023/09/07 00:47:16;;;;;;;;;6.00;5.50;;;;;23.90;47.80;100987.22;5072368;28;67091;-71
2023/09/07 00:49:42;;;;;;;;;6.50;5.00;;;;;23.87;47.68;100989.19;5071712;28;69391;-70
2023/09/07 00:52:08;;;;;;;;;6.50;5.25;;;;;23.85;47.72;100985.78;5075591;28;45621;-70
2023/09/07 00:54:34;;;;;;;;;4.25;3.75;;;;;23.84;48.19;100985.91;5072764;28;45474;-70
2023/09/07 00:57:00;;;;;;;;;7.00;5.25;;;;;23.82;47.87;100994.03;5072168;28;45713;-70
2023/09/07 00:59:25;;;;;;;;;4.75;3.75;;;;;23.81;48.09;100989.66;5061488;28;57262;-71
2023/09/07 01:01:50;;;;;;;;;9.25;6.50;;;;;23.76;47.90;100989.16;5065475;28;63866;-70
2023/09/07 01:04:16;;;;;;;;;8.00;6.50;;;;;23.74;47.97;100987.56;5070246;28;73717;-70
2023/09/07 01:06:48;;;;;;;;;7.00;6.75;;;;;23.71;48.07;100980.66;5068098;27;45415;-71
2023/09/07 01:09:20;;;;;;;;;6.50;6.25;;;;;23.68;47.82;100980.88;5086225;27;45504;-70
2023/09/07 01:11:45;;;;;;;;;5.00;4.50;;;;;23.64;48.15;100974.09;5077146;27;45403;-70
2023/09/07 01:14:11;;;;;;;;;8.00;6.50;;;;;23.60;48.08;100976.16;5069042;28;76240;-70
2023/09/07 01:16:38;;;;;;;;;5.25;5.25;;;;;23.57;48.55;100979.06;5069741;28;56896;-70
2023/09/07 01:19:07;;;;;;;;;12.25;6.00;;;;;23.53;48.20;100976.72;5071240;28;45463;-72
2023/09/07 01:21:37;;;;;;;;;8.25;5.25;;;;;23.47;48.85;100976.22;5075294;27;45423;-71
2023/09/07 01:24:04;;;;;;;;;8.00;7.25;;;;;23.41;48.44;100976.72;5075195;28;46381;-71
2023/09/07 01:26:30;;;;;;;;;6.50;5.75;;;;;23.34;49.11;100974.63;5071937;27;45712;-71
2023/09/07 01:28:56;;;;;;;;;5.75;5.25;;;;;23.33;48.83;100975.63;5087129;27;70724;-72
2023/09/07 01:31:21;;;;;;;;;5.50;5.25;;;;;23.27;48.96;100979.59;5067668;28;47015;-70
2023/09/07 01:33:46;;;;;;;;;9.75;5.50;;;;;23.27;49.32;100977.78;5057296;28;47211;-70
2023/09/07 01:36:12;;;;;;;;;7.75;5.50;;;;;23.23;49.18;100970.13;5084940;27;66560;-72
2023/09/07 01:38:37;;;;;;;;;9.00;4.75;;;;;23.21;48.98;100980.06;5074388;27;45509;-71
2023/09/07 01:41:03;;;;;;;;;6.00;5.50;;;;;23.16;49.11;100977.75;5071767;28;45328;-70
2023/09/07 01:43:28;;;;;;;;;7.75;6.00;;;;;23.13;49.56;100975.31;5070866;27;65137;-70
2023/09/07 01:45:53;;;;;;;;;5.25;5.25;;;;;23.12;49.63;100971.81;5068848;27;45440;-71
2023/09/07 01:48:19;;;;;;;;;8.75;4.25;;;;;23.12;49.49;100970.94;5066973;28;67060;-71
2023/09/07 01:50:44;;;;;;;;;4.75;4.50;;;;;23.11;49.76;100972.75;5075158;28;45350;-69
2023/09/07 01:53:09;;;;;;;;;7.00;5.25;;;;;23.12;49.60;100974.47;5073779;27;46188;-71
2023/09/07 01:55:35;;;;;;;;;7.75;5.50;;;;;23.09;49.45;100973.88;5078119;28;55784;-71
2023/09/07 01:58:00;;;;;;;;;5.75;5.50;;;;;23.08;49.82;100970.31;5070658;28;45554;-71
2023/09/07 02:00:26;;;;;;;;;12.00;8.25;;;;;23.07;49.67;100973.09;5078083;28;45494;-70
2023/09/07 02:02:51;;;;;;;;;11.50;10.50;;;;;23.00;49.80;100964.69;5073995;27;45505;-70
2023/09/07 02:05:16;;;;;;;;;11.25;10.25;;;;;23.00;49.82;100974.50;5078449;28;45629;-70
2023/09/07 02:07:42;;;;;;;;;7.25;6.00;;;;;22.98;49.86;100971.09;5074892;28;45469;-70
2023/09/07 02:10:08;;;;;;;;;11.00;11.00;;;;;22.92;50.11;100973.25;5080487;28;45510;-70
2023/09/07 02:12:33;;;;;;;;;13.00;10.00;;;;;22.87;50.13;100975.44;5069923;27;46587;-70
2023/09/07 02:15:01;;;;;;;;;6.25;6.25;;;;;22.84;49.84;100970.34;5068996;28;62096;-70
2023/09/07 02:17:27;;;;;;;;;8.25;7.25;;;;;22.80;50.15;100976.84;5079855;28;45449;-70
2023/09/07 02:19:52;;;;;;;;;9.50;6.00;;;;;22.76;50.09;100970.06;5067534;28;64836;-70
2023/09/07 02:22:17;;;;;;;;;9.25;8.00;;;;;22.70;50.52;100968.69;5075119;27;64278;-71
2023/09/07 02:24:43;;;;;;;;;6.50;5.50;;;;;22.63;50.27;100966.59;5063525;28;45504;-71
2023/09/07 02:27:08;;;;;;;;;7.25;5.25;;;;;22.63;50.47;100972.78;5072675;28;50241;-71
2023/09/07 02:29:34;;;;;;;;;7.75;5.00;;;;;22.62;50.37;100968.41;5075228;28;45514;-71
2023/09/07 02:31:59;;;;;;;;;8.75;6.25;;;;;22.58;50.44;100961.59;5073048;27;66695;-71
2023/09/07 02:34:24;;;;;;;;;8.00;6.50;;;;;22.54;50.27;100960.97;5077996;28;57684;-71
2023/09/07 02:36:50;;;;;;;;;7.50;4.75;;;;;22.53;50.88;100966.44;5081039;28;45348;-71
2023/09/07 02:39:15;;;;;;;;;7.75;6.75;;;;;22.49;50.88;100972.97;5076086;28;55255;-71
2023/09/07 02:41:40;;;;;;;;;8.25;6.00;;;;;22.44;50.41;100970.63;5068796;27;45455;-71
2023/09/07 02:44:06;;;;;;;;;8.25;6.00;;;;;22.41;50.87;100967.31;5079077;28;49777;-71
2023/09/07 02:46:32;;;;;;;;;7.25;5.75;;;;;22.36;50.76;100973.00;5080804;28;45305;-71
2023/09/07 02:48:57;;;;;;;;;6.00;5.00;;;;;22.32;50.73;100968.84;5078311;28;45465;-71
2023/09/07 02:51:25;;;;;;;;;9.25;7.00;;;;;22.25;51.04;100971.06;5073711;28;45477;-72
2023/09/07 02:53:53;;;;;;;;;6.00;6.00;;;;;22.23;50.81;100975.66;5056182;28;45669;-70
2023/09/07 02:56:18;;;;;;;;;8.50;7.00;;;;;22.19;51.13;100969.72;5071476;28;45453;-70
2023/09/07 02:58:45;;;;;;;;;6.50;5.25;;;;;22.17;51.38;100962.78;5057824;28;50682;-72
2023/09/07 03:01:10;;;;;;;;;8.00;6.75;;;;;22.14;51.18;100957.69;5072872;28;46306;-69
2023/09/07 03:03:36;;;;;;;;;5.25;5.25;;;;;22.12;51.54;100955.13;5074785;27;45373;-71
2023/09/07 03:06:12;;;;;;;;;8.75;7.75;;;;;22.10;51.47;100957.06;5075064;28;45498;-71
2023/09/07 03:08:39;;;;;;;;;4.50;3.75;;;;;22.09;52.09;100962.47;5068498;28;45427;-72
2023/09/07 03:11:05;;;;;;;;;6.25;5.25;;;;;22.07;51.66;100962.59;5073380;28;46073;-71
2023/09/07 03:13:31;;;;;;;;;12.50;8.25;;;;;22.03;51.96;100955.78;5074047;27;45715;-70
2023/09/07 03:15:57;;;;;;;;;8.25;8.00;;;;;21.95;51.89;100952.81;5070481;28;45350;-70
2023/09/07 03:18:22;;;;;;;;;11.00;8.25;;;;;21.93;52.31;100954.75;5073781;28;45568;-70
2023/09/07 03:20:49;;;;;;;;;13.25;8.75;;;;;21.89;52.00;100955.94;5075763;28;71745;-69
2023/09/07 03:23:14;;;;;;;;;12.25;10.00;;;;;21.87;52.28;100956.03;5065647;27;45616;-71
2023/09/07 03:25:39;;;;;;;;;9.50;9.25;;;;;21.78;52.39;100951.38;5076059;28;60415;-70
2023/09/07 03:28:05;;;;;;;;;10.25;8.50;;;;;21.80;52.16;100955.59;5068228;28;45559;-70
2023/09/07 03:30:30;;;;;;;;;8.50;8.25;;;;;21.78;52.49;100956.69;5071652;28;68567;-70
2023/09/07 03:32:55;;;;;;;;;8.25;8.00;;;;;21.70;52.47;100949.22;5072251;27;56305;-70
2023/09/07 03:35:21;;;;;;;;;13.75;9.50;;;;;21.72;52.89;100962.44;5057192;28;64830;-71
2023/09/07 03:37:47;;;;;;;;;10.50;8.75;;;;;21.72;52.87;100965.94;5078976;28;48643;-70
2023/09/07 03:40:12;;;;;;;;;10.75;9.50;;;;;21.67;52.41;100957.41;5074278;28;45511;-70
2023/09/07 03:42:39;;;;;;;;;9.25;8.00;;;;;21.66;52.91;100957.56;5075994;27;61213;-71
2023/09/07 03:45:05;;;;;;;;;13.00;9.50;;;;;21.62;52.56;100956.91;5073622;27;45509;-71
2023/09/07 03:47:30;;;;;;;;;9.25;7.00;;;;;21.59;52.91;100957.97;5068092;28;45376;-70
2023/09/07 03:49:59;;;;;;;;;9.50;9.50;;;;;21.55;52.89;100953.81;5072711;28;71924;-70
2023/09/07 03:52:26;;;;;;;;;11.00;8.25;;;;;21.56;53.06;100960.84;5073685;27;45842;-70
2023/09/07 03:54:52;;;;;;;;;9.50;8.00;;;;;21.55;53.62;100952.97;5070625;28;45374;-70
2023/09/07 03:57:18;;;;;;;;;10.75;6.50;;;;;21.55;53.30;100963.63;5067357;28;45355;-71
2023/09/07 03:59:43;;;;;;;;;10.00;8.75;;;;;21.54;52.87;100969.91;5060139;28;48422;-70
2023/09/07 04:02:09;;;;;;;;;11.00;9.00;;;;;21.52;53.05;100961.19;5074726;27;53565;-70
2023/09/07 04:04:34;;;;;;;;;12.75;11.00;;;;;21.53;53.46;100962.88;5069868;28;66505;-70
2023/09/07 04:06:59;;;;;;;;;12.50;9.50;;;;;21.51;53.44;100965.63;5070783;27;69084;-72
2023/09/07 04:09:25;;;;;;;;;10.50;8.75;;;;;21.49;53.19;100962.22;5070678;27;71806;-72
2023/09/07 04:11:50;;;;;;;;;11.00;8.00;;;;;21.49;53.11;100964.88;5078596;27;45324;-71
2023/09/07 04:14:15;;;;;;;;;7.75;7.75;;;;;21.47;53.36;100963.31;5067545;28;45790;-71
2023/09/07 04:16:42;;;;;;;;;11.50;9.00;;;;;21.42;53.40;100961.78;5073501;28;63213;-71
2023/09/07 04:19:07;;;;;;;;;11.75;8.50;;;;;21.40;53.35;100957.50;5075801;27;45283;-71
2023/09/07 04:21:32;;;;;;;;;10.75;8.25;;;;;21.42;53.38;100964.44;5075818;27;45303;-71
2023/09/07 04:23:58;;;;;;;;;14.50;8.75;;;;;21.45;53.98;100965.19;5072060;27;53621;-70
2023/09/07 04:26:23;;;;;;;;;8.75;8.75;;;;;21.44;53.66;100956.31;5071916;27;45658;-71
2023/09/07 04:28:48;;;;;;;;;9.50;8.25;;;;;21.45;53.57;100958.03;5068210;27;64516;-71
2023/09/07 04:31:14;;;;;;;;;11.75;8.00;;;;;21.42;53.97;100959.13;5075371;27;67924;-71
2023/09/07 04:33:39;;;;;;;;;10.25;9.00;;;;;21.36;54.26;100948.03;5069797;27;69291;-71
2023/09/07 04:36:14;;;;;;;;;9.50;7.50;;;;;21.45;54.02;100959.88;5071951;28;62205;-71
2023/09/07 04:38:40;;;;;;;;;11.00;10.50;;;;;21.45;54.19;100959.88;5070468;27;46295;-70
2023/09/07 04:41:17;;;;;;;;;15.00;10.00;;;;;21.44;53.95;100956.31;5075558;27;45556;-72
2023/09/07 04:43:43;;;;;;;;;8.75;7.75;;;;;21.43;53.84;100957.31;5074121;27;45485;-71
2023/09/07 04:46:10;;;;;;;;;14.25;10.25;;;;;21.41;53.54;100960.06;5070738;27;45778;-71
2023/09/07 04:48:35;;;;;;;;;12.25;9.75;;;;;21.40;53.43;100962.84;5070021;28;46327;-71
2023/09/07 04:51:03;;;;;;;;;10.50;9.00;;;;;21.36;53.96;100959.53;5069609;28;45310;-71
2023/09/07 04:53:29;;;;;;;;;8.50;7.25;;;;;21.32;53.59;100952.72;5075025;27;45427;-72
2023/09/07 04:55:55;;;;;;;;;12.00;8.00;;;;;21.29;53.88;100957.41;5071900;28;45562;-72
2023/09/07 04:58:20;;;;;;;;;13.00;8.50;;;;;21.27;53.95;100967.31;5052366;28;46915;-72
2023/09/07 05:00:46;;;;;;;;;12.50;9.50;;;;;21.20;53.92;100958.88;5060231;28;45782;-72
2023/09/07 05:03:12;;;;;;;;;12.50;10.00;;;;;21.14;54.05;100957.50;5069829;27;45489;-71
2023/09/07 05:05:41;;;;;;;;;11.25;8.00;;;;;21.10;54.85;100963.13;5075269;28;46172;-72
2023/09/07 05:08:06;;;;;;;;;9.75;9.50;;;;;21.08;54.38;100965.03;5074576;27;45864;-72
2023/09/07 05:10:35;;;;;;;;;9.75;8.00;;;;;21.04;54.30;100969.72;5068627;27;45404;-72
2023/09/07 05:13:01;;;;;;;;;11.25;9.00;;;;;21.02;54.98;100975.13;5072792;27;45603;-73
2023/09/07 05:15:26;;;;;;;;;10.25;9.25;;;;;20.99;55.27;100971.84;5070316;27;45473;-72
2023/09/07 05:17:52;;;;;;;;;9.75;8.75;;;;;21.02;54.68;100982.28;5071468;27;45344;-71
2023/09/07 05:20:18;;;;;;;;;8.25;8.25;;;;;20.96;55.01;100975.53;5070529;28;45506;-71
2023/09/07 05:22:44;;;;;;;;;11.50;8.25;;;;;20.95;55.08;100981.84;5075984;27;45221;-70
2023/09/07 05:25:10;;;;;;;;;11.00;8.75;;;;;20.90;55.26;100975.13;5077508;27;45295;-72
2023/09/07 05:27:35;;;;;;;;;13.00;8.00;;;;;20.92;55.45;100986.50;5077724;27;45828;-72
2023/09/07 05:30:02;;;;;;;;;10.00;9.00;;;;;20.90;55.64;100983.09;5071452;28;65727;-77
2023/09/07 05:32:27;;;;;;;;;11.50;9.25;;;;;20.86;55.28;100985.94;5076810;27;45482;-78
2023/09/07 05:34:56;;;;;;;;;11.00;9.00;;;;;20.82;55.25;100979.13;5076874;27;45466;-72
2023/09/07 05:37:21;;;;;;;;;13.00;8.00;;;;;20.85;55.19;100989.56;5061409;28;45645;-70
2023/09/07 05:39:47;;;;;;;;;12.50;8.25;;;;;20.79;55.96;100971.34;5078728;27;47646;-70
2023/09/07 05:42:12;;;;;;;;;11.50;8.00;;;;;20.71;56.80;100983.44;5078534;27;45485;-69
2023/09/07 05:44:38;;;;;;;;;13.50;10.00;;;;;20.63;56.99;100989.28;5062414;27;60566;-71
2023/09/07 05:47:04;;;;;;;;;10.25;10.25;;;;;20.55;57.15;100984.41;5069833;27;46097;-73
2023/09/07 05:49:29;;;;;;;;;9.50;9.50;;;;;20.46;57.58;100988.50;5077623;27;45360;-71
2023/09/07 05:51:55;;;;;;;;;8.75;6.50;;;;;20.40;57.87;100990.75;5079326;27;45546;-70
2023/09/07 05:54:20;;;;;;;;;23.25;19.25;;;;;20.33;58.39;100984.97;5066450;27;70830;-71
2023/09/07 05:56:46;;;;;;;;;13.00;10.25;;;;;20.32;58.23;100988.56;5062867;28;46850;-70
2023/09/07 05:59:11;;;;;;;;;11.75;10.25;;;;;20.33;58.28;100984.97;5078961;27;45533;-74
2023/09/07 06:01:36;;;;;;;;;13.25;10.50;;;;;20.35;58.46;100993.69;5071617;27;58435;-71
2023/09/07 06:04:02;;;;;;;;;12.25;10.50;;;;;20.33;58.25;100989.41;5071178;27;45788;-71
2023/09/07 06:06:28;;;;;;;;;14.50;10.50;;;;;20.37;58.30;100993.59;5057461;28;47066;-68
2023/09/07 06:08:54;;;;;;;;;14.50;11.00;;;;;20.40;58.84;100998.72;5088285;27;45501;-70
2023/09/07 06:11:19;;;;;;;;;14.25;11.50;;;;;20.41;58.56;100995.09;5077074;28;45512;-72
2023/09/07 06:13:46;;;;;;;;;13.75;12.50;;;;;20.52;58.53;101000.56;5077326;27;45486;-71
2023/09/07 06:16:12;;;;;;;;;10.25;10.25;;;;;20.55;58.35;101000.38;5076105;27;46054;-73
2023/09/07 06:18:37;;;;;;;;;14.00;11.50;;;;;20.56;58.35;101004.75;5057076;28;45426;-73
2023/09/07 06:21:04;;;;;;;;;14.75;11.50;;;;;20.55;58.43;101004.84;5080637;28;45445;-72
2023/09/07 06:23:29;;;;;;;;;17.25;12.25;;;;;20.52;58.56;101011.19;5073756;27;45767;-72
2023/09/07 06:25:55;;;;;;;;;16.50;13.75;;;;;20.46;58.62;101001.81;5068515;28;50451;-72
2023/09/07 06:28:20;;;;;;;;;12.25;10.50;;;;;20.53;58.60;101004.94;5068006;28;45427;-73
2023/09/07 06:30:46;;;;;;;;;13.50;11.00;;;;;20.55;58.37;101002.19;5063294;28;55514;-75
2023/09/07 06:33:12;;;;;;;;;16.50;11.50;;;;;20.56;58.72;101003.91;5059986;28;45881;-71
2023/09/07 06:35:37;;;;;;;;;16.00;12.50;;;;;20.56;59.07;101003.91;5072229;27;47467;-71
2023/09/07 06:38:03;;;;;;;;;15.00;12.00;;;;;20.61;58.37;101004.44;5076004;28;45391;-75
2023/09/07 06:40:28;;;;;;;;;15.00;13.50;;;;;20.65;58.40;100995.34;5067803;28;45347;-72
2023/09/07 06:42:57;;;;;;;;;16.25;11.00;;;;;20.67;58.79;101001.41;5057703;28;54319;-74
2023/09/07 06:45:23;;;;;;;;;12.75;12.00;;;;;20.73;58.25;100994.84;5077313;28;47246;-73
2023/09/07 06:47:50;;;;;;;;;9.75;8.25;;;;;20.83;57.96;100994.13;5053844;28;45381;-69
2023/09/07 06:50:15;;;;;;;;;12.50;12.00;;;;;20.90;57.82;101001.72;5055022;28;45404;-68
2023/09/07 06:52:42;;;;;;;;;11.00;9.00;;;;;20.91;57.71;101001.63;5073689;27;45339;-72
2023/09/07 06:55:08;;;;;;;;;16.25;12.00;;;;;20.98;58.13;101007.38;5072411;28;47567;-73
2023/09/07 06:57:36;;;;;;;;;16.25;13.00;;;;;20.98;57.94;101010.03;5061131;28;45964;-73
2023/09/07 07:00:05;;;;;;;;;12.75;11.50;;;;;20.95;57.84;100996.94;5066135;28;45488;-72
2023/09/07 07:02:30;;;;;;;;;14.00;11.75;;;;;21.01;57.81;101007.16;5068274;27;45509;-73
2023/09/07 07:04:56;;;;;;;;;18.00;12.50;;;;;21.06;57.77;101007.72;5075061;28;45579;-73
2023/09/07 07:07:21;;;;;;;;;12.25;11.50;;;;;21.08;58.13;101013.78;5069965;28;45299;-73
2023/09/07 07:09:46;;;;;;;;;17.00;12.25;;;;;21.09;57.71;101017.28;5065241;28;45293;-73
2023/09/07 07:12:12;;;;;;;;;17.50;13.75;;;;;21.09;57.71;101014.63;5073509;27;64176;-72
2023/09/07 07:14:41;;;;;;;;;17.75;15.75;;;;;21.10;57.26;101008.38;5068454;28;46078;-73
2023/09/07 07:17:06;;;;;;;;;23.75;18.00;;;;;21.16;57.61;101006.16;5078561;27;66946;-71
2023/09/07 07:19:31;;;;;;;;;16.75;12.50;;;;;21.28;57.04;101007.13;5065891;28;45280;-72
2023/09/07 07:21:57;;;;;;;;;19.50;16.50;;;;;21.35;57.02;101016.38;5074303;27;45469;-71
2023/09/07 07:24:22;;;;;;;;;20.50;15.50;;;;;21.36;56.73;101007.47;5072789;28;61005;-72
2023/09/07 07:26:47;;;;;;;;;17.25;13.00;;;;;21.42;57.05;101016.81;5061663;28;56171;-71
2023/09/07 07:29:13;;;;;;;;;22.00;19.00;;;;;21.49;57.16;101014.63;5074858;28;45410;-70
2023/09/07 07:31:38;;;;;;;;;15.25;12.50;;;;;21.61;56.55;101009.31;5076740;27;45406;-70
2023/09/07 07:34:04;;;;;;;;;19.75;14.50;;;;;21.68;56.25;101004.41;5075752;27;45839;-71
2023/09/07 07:36:30;;;;;;;;;16.25;12.25;;;;;21.75;56.36;100996.88;5060765;27;45312;-71
2023/09/07 07:38:56;;;;;;;;;15.25;14.00;;;;;21.86;56.14;101004.09;5064766;28;45416;-71
2023/09/07 07:41:21;;;;;;;;;16.25;11.75;;;;;21.98;55.58;101008.56;5074953;27;45558;-72
2023/09/07 07:43:46;;;;;;;;;13.00;11.75;;;;;22.08;55.63;101006.97;5072376;27;48626;-71
2023/09/07 07:46:15;;;;;;;;;12.00;11.50;;;;;22.23;55.58;101006.81;5074260;27;70045;-71
2023/09/07 07:48:40;;;;;;;;;18.25;14.75;;;;;22.23;55.19;101010.31;5079239;27;45457;-70
2023/09/07 07:51:06;;;;;;;;;16.50;11.75;;;;;22.22;55.07;101008.59;5077557;27;45327;-72
2023/09/07 07:53:31;;;;;;;;;14.75;13.50;;;;;22.29;55.38;101004.59;5077477;27;45356;-70
2023/09/07 07:55:57;;;;;;;;;13.75;11.75;;;;;22.31;54.53;101010.66;5080398;27;45490;-70
2023/09/07 07:58:22;;;;;;;;;14.75;12.00;;;;;22.36;54.56;101005.84;5079155;27;45770;-70
2023/09/07 08:00:48;;;;;;;;;12.50;11.25;;;;;22.41;54.44;101010.00;5076648;28;45381;-72
2023/09/07 08:03:14;;;;;;;;;18.25;14.50;;;;;22.44;54.42;101005.28;5094541;27;46976;-71
2023/09/07 08:05:40;;;;;;;;;15.00;12.50;;;;;22.44;54.21;101010.63;5067551;28;45382;-70
2023/09/07 08:08:05;;;;;;;;;16.75;12.75;;;;;22.48;54.65;101009.44;5079751;27;45353;-71
2023/09/07 08:10:36;;;;;;;;;14.00;12.75;;;;;22.59;54.35;101010.47;5078174;27;45604;-72
2023/09/07 08:13:02;;;;;;;;;18.25;15.50;;;;;22.64;54.05;101010.97;5091518;27;46914;-70
2023/09/07 08:15:28;;;;;;;;;12.75;12.25;;;;;22.66;53.57;101004.56;5075282;28;45932;-71
2023/09/07 08:17:54;;;;;;;;;13.00;12.75;;;;;22.70;54.20;101013.19;5061378;28;45573;-70
2023/09/07 08:20:19;;;;;;;;;13.00;12.00;;;;;22.75;53.61;101011.91;5076164;27;45417;-71
2023/09/07 08:22:47;;;;;;;;;13.50;12.00;;;;;22.77;53.68;101017.13;5069230;27;72036;-71
2023/09/07 08:25:13;;;;;;;;;15.75;14.00;;;;;22.83;53.51;101029.16;5059617;28;45391;-72
2023/09/07 08:27:47;;;;;;;;;16.00;14.50;;;;;22.87;53.32;101017.28;5078374;27;45442;-72
2023/09/07 08:30:15;;;;;;;;;18.00;13.00;;;;;22.93;53.47;101016.84;5068840;27;45528;-74
2023/09/07 08:32:41;;;;;;;;;21.00;15.25;;;;;22.98;53.39;101011.97;5071473;27;46370;-72
2023/09/07 08:35:12;;;;;;;;;14.50;11.75;;;;;23.05;53.09;101005.25;5070104;27;46032;-74
2023/09/07 08:37:38;;;;;;;;;15.25;12.00;;;;;23.15;53.44;101008.09;5064715;28;45449;-72
2023/09/07 08:40:06;;;;;;;;;15.00;12.25;;;;;23.24;53.24;101007.38;5072433;28;45783;-75
2023/09/07 08:42:32;;;;;;;;;16.75;13.00;;;;;23.31;53.08;101002.44;5070682;27;45521;-71
2023/09/07 08:45:00;;;;;;;;;15.50;12.25;;;;;23.40;52.55;101001.72;5062210;28;45349;-73
2023/09/07 08:47:29;;;;;;;;;16.50;13.25;;;;;23.48;52.87;101001.16;5072184;28;45272;-79
2023/09/07 08:49:55;;;;;;;;;11.50;11.00;;;;;23.56;52.26;100992.53;5052163;28;45864;-77
2023/09/07 08:52:21;;;;;;;;;14.75;12.75;;;;;23.63;52.29;100991.06;5051573;28;45416;-82
2023/09/07 08:54:48;;;;;;;;;15.75;11.25;;;;;23.68;52.39;100991.56;5057541;28;45958;-74
2023/09/07 08:57:13;;;;;;;;;9.75;9.50;;;;;23.82;51.89;100998.53;5077570;28;45500;-76
2023/09/07 08:59:39;;;;;;;;;16.25;13.00;;;;;23.89;51.89;100986.38;5048406;28;45239;-75
2023/09/07 09:02:08;;;;;;;;;14.25;12.25;;;;;23.94;51.46;100989.56;5073857;27;45473;-80
2023/09/07 09:04:34;;;;;;;;;10.00;10.00;;;;;24.06;51.48;100987.69;5069251;27;45654;-73
2023/09/07 09:07:03;;;;;;;;;12.50;11.50;;;;;24.10;51.49;100981.16;5074575;28;45674;-71
2023/09/07 09:09:32;;;;;;;;;11.75;11.25;;;;;24.20;50.92;100981.25;5057750;28;45596;-86
2023/09/07 09:12:07;;;;;;;;;12.00;11.75;;;;;24.33;51.11;100984.66;5077016;27;45630;-77
2023/09/07 09:14:33;;;;;;;;;16.50;13.25;;;;;24.36;50.57;100975.50;5088089;27;45612;-72
2023/09/07 09:16:58;;;;;;;;;12.50;11.25;;;;;24.42;50.65;100983.88;5073512;28;61634;-79
2023/09/07 09:19:33;;;;;;;;;13.25;10.25;;;;;24.54;50.32;100989.22;5059236;28;70610;-74
2023/09/07 09:21:59;;;;;;;;;13.25;8.75;;;;;24.64;50.25;100990.19;5062250;28;46079;-87
2023/09/07 09:24:24;;;;;;;;;13.50;12.00;;;;;24.71;50.48;100982.50;5072362;28;45761;-74
2023/09/07 09:26:50;;;;;;;;;9.50;9.25;;;;;24.80;49.90;100981.72;5070765;27;45458;-74
2023/09/07 09:29:15;;;;;;;;;12.25;11.00;;;;;24.88;49.97;100984.63;5061869;27;57326;-74
2023/09/07 09:31:41;;;;;;;;;12.50;11.50;;;;;24.97;49.83;100980.31;5051760;27;47882;-73
2023/09/07 09:34:06;;;;;;;;;11.25;10.50;;;;;25.08;49.61;100987.47;5063221;27;45320;-73
2023/09/07 09:36:36;;;;;;;;;9.75;8.25;;;;;25.13;49.71;100986.09;5065330;27;46127;-72
2023/09/07 09:39:03;;;;;;;;;14.00;12.50;;;;;25.22;50.01;100991.66;5078814;27;45363;-72
2023/09/07 09:41:30;;;;;;;;;13.25;11.00;;;;;25.30;49.37;100989.19;5071531;28;46013;-76
2023/09/07 09:43:56;;;;;;;;;10.25;9.25;;;;;25.32;48.81;100988.09;5059809;27;45354;-72
2023/09/07 09:46:22;;;;;;;;;25.25;15.50;;;;;25.38;48.87;100987.53;5077021;27;45491;-72
2023/09/07 09:48:51;;;;;;;;;24.25;18.25;;;;;25.49;48.59;100991.97;5065071;27;45412;-80
2023/09/07 09:51:18;;;;;;;;;14.00;10.75;;;;;25.52;48.74;100986.34;5071244;28;47319;-73
2023/09/07 09:53:44;;;;;;;;;21.00;16.75;;;;;25.54;48.61;100967.47;5071611;27;45759;-73
2023/09/07 09:56:10;;;;;;;;;15.75;12.25;;;;;25.70;48.36;100985.75;5074544;28;45494;-73
2023/09/07 09:58:35;;;;;;;;;10.50;10.50;;;;;25.83;48.65;100994.41;5063666;28;45521;-72
2023/09/07 10:01:05;;;;;;;;;12.75;12.25;;;;;25.82;47.73;100978.47;5070754;27;63238;-73
2023/09/07 10:03:37;;;;;;;;;13.50;10.50;;;;;25.94;48.00;100982.75;5058583;28;45967;-78
2023/09/07 10:06:09;;;;;;;;;15.50;13.25;;;;;26.06;47.79;100991.56;5074195;28;46915;-75
2023/09/07 10:08:34;;;;;;;;;12.50;11.25;;;;;26.11;47.03;100982.13;5076687;27;45312;-74
2023/09/07 10:11:00;;;;;;;;;17.25;12.25;;;;;26.22;47.87;100988.38;5056746;28;47234;-74
2023/09/07 10:13:30;;;;;;;;;14.00;11.00;;;;;26.24;47.21;100981.88;5074146;27;67340;-85
2023/09/07 10:16:08;;;;;;;;;15.25;12.00;;;;;26.31;46.87;100984.84;5061976;28;45304;-76
2023/09/07 10:18:35;;;;;;;;;12.25;11.25;;;;;26.37;47.14;100980.78;5077569;28;45437;-76
2023/09/07 10:21:03;;;;;;;;;14.00;8.25;;;;;26.41;46.48;100977.69;5067529;28;46346;-77
2023/09/07 10:23:37;;;;;;;;;17.00;13.25;;;;;26.40;46.39;100967.06;5063058;28;45363;-81
2023/09/07 10:26:07;;;;;;;;;27.75;19.75;;;;;26.56;45.96;100983.50;5079904;27;45411;-81
2023/09/07 10:28:32;;;;;;;;;9.75;9.00;;;;;26.65;46.89;100981.84;5071475;28;45250;-81
2023/09/07 10:31:07;;;;;;;;;16.25;11.25;;;;;26.67;46.40;100978.03;5074891;28;45268;-81
2023/09/07 10:33:34;;;;;;;;;15.00;13.25;;;;;26.75;45.40;100977.31;5078668;27;46182;-80
2023/09/07 10:36:04;;;;;;;;;10.50;8.50;;;;;26.85;45.72;100980.84;5056055;28;45352;-82
2023/09/07 10:38:33;;;;;;;;;11.25;10.00;;;;;26.90;46.23;100969.69;5077046;28;45464;-75
2023/09/07 10:41:00;;;;;;;;;12.50;9.00;;;;;26.97;45.63;100973.50;5078943;28;45924;-76
2023/09/07 10:43:33;;;;;;;;;8.25;8.25;;;;;27.04;45.42;100969.25;5086063;28;45585;-82
2023/09/07 10:46:00;;;;;;;;;16.50;13.75;;;;;27.08;45.45;100973.34;5062467;28;45202;-78
2023/09/07 10:48:27;;;;;;;;;11.50;10.75;;;;;27.15;45.63;100970.94;5063638;28;46644;-78
2023/09/07 10:50:53;;;;;;;;;8.25;8.00;;;;;27.21;45.22;100966.81;5064227;28;46033;-79
2023/09/07 10:53:29;;;;;;;;;14.50;10.50;;;;;27.24;44.97;100964.69;5077880;27;45432;-77
2023/09/07 10:55:56;;;;;;;;;14.00;9.75;;;;;27.32;45.10;100953.28;5069819;28;45446;-72
2023/09/07 10:58:32;;;;;;;;;12.50;11.50;;;;;27.35;45.13;100944.06;5079492;27;45289;-73
2023/09/07 11:00:58;;;;;;;;;9.00;8.50;;;;;27.47;44.12;100953.63;5065767;28;46013;-73
2023/09/07 11:03:27;;;;;;;;;12.75;11.25;;;;;27.56;45.07;100954.59;5075637;27;45486;-73
2023/09/07 11:05:59;;;;;;;;;10.00;9.00;;;;;27.63;44.66;100948.47;5069315;28;45495;-75
2023/09/07 11:08:25;;;;;;;;;17.50;13.00;;;;;27.71;44.44;100953.13;5067522;27;45515;-73
2023/09/07 11:10:52;;;;;;;;;12.50;10.50;;;;;27.78;44.75;100950.69;5072653;27;46315;-74
2023/09/07 11:13:17;;;;;;;;;14.00;10.25;;;;;27.83;44.43;100945.72;5078843;27;45498;-72